Time;durP1;ratioP1;P1;durP2;ratioP2;P2;SDS_P1;SDS_P2;PMS_P1;PMS_P2;Temp;Humidity;BMP_temperature;BMP_pressure;BME280_temperature;BME280_humidity;BME280_pressure;Samples;Min_cycle;Max_cycle;Signal;HPM_P1;HPM_P2
2022/07/26 00:01:22;;;;;;;8.93;2.80;;;18.10;99.90;;;;;;6136490;23;20009;-76
2022/07/26 00:03:50;;;;;;;12.38;3.97;;;18.10;99.90;;;;;;6160973;23;20009;-76
2022/07/26 00:06:16;;;;;;;14.13;3.33;;;18.10;99.90;;;;;;6159431;23;20015;-77
2022/07/26 00:08:42;;;;;;;13.90;3.30;;;18.10;99.90;;;;;;6137303;23;20228;-77
2022/07/26 00:11:09;;;;;;;11.55;3.30;;;18.20;99.90;;;;;;6161443;23;20013;-75
2022/07/26 00:13:34;;;;;;;12.73;2.92;;;18.20;99.90;;;;;;6161348;23;20300;-75
2022/07/26 00:16:01;;;;;;;8.15;2.50;;;18.20;99.90;;;;;;6136072;23;20059;-75
2022/07/26 00:18:27;;;;;;;9.32;2.88;;;18.30;99.90;;;;;;6161066;23;20024;-75
2022/07/26 00:20:53;;;;;;;10.23;3.17;;;18.30;99.90;;;;;;6160840;23;20288;-76
2022/07/26 00:23:18;;;;;;;9.23;2.90;;;18.30;99.90;;;;;;6136218;23;20267;-76
2022/07/26 00:25:44;;;;;;;11.38;2.58;;;18.40;99.90;;;;;;6161437;23;20196;-76
2022/07/26 00:28:11;;;;;;;12.60;3.00;;;18.30;99.90;;;;;;6112044;23;20013;-76
2022/07/26 00:30:37;;;;;;;7.72;2.45;;;18.30;99.90;;;;;;6110905;23;20013;-77
2022/07/26 00:33:03;;;;;;;12.38;3.25;;;18.30;99.90;;;;;;6112042;23;20014;-76
2022/07/26 00:35:29;;;;;;;6.72;2.45;;;18.30;99.90;;;;;;6113249;23;20061;-76
2022/07/26 00:37:55;;;;;;;6.25;2.95;;;18.40;99.90;;;;;;6137299;23;20072;-76
2022/07/26 00:40:20;;;;;;;9.55;2.60;;;18.30;99.90;;;;;;6136824;23;20013;-75
2022/07/26 00:42:46;;;;;;;9.75;2.53;;;18.30;99.90;;;;;;6136948;23;20010;-75
2022/07/26 00:45:13;;;;;;;11.15;2.53;;;18.30;99.90;;;;;;6135658;23;20009;-78
2022/07/26 00:47:39;;;;;;;12.07;3.20;;;18.30;99.90;;;;;;6112692;23;20292;-77
2022/07/26 00:50:08;;;;;;;13.00;2.97;;;18.30;99.90;;;;;;6161378;23;20089;-75
2022/07/26 00:52:49;;;;;;;7.65;2.53;;;18.40;99.90;;;;;;6161951;23;20319;-76
2022/07/26 00:55:18;;;;;;;8.97;2.63;;;18.20;99.90;;;;;;6137825;23;20556;-76
2022/07/26 00:57:47;;;;;;;9.38;2.80;;;18.20;99.90;;;;;;6136909;23;20014;-77
2022/07/26 01:00:21;;;;;;;9.40;3.10;;;18.20;99.90;;;;;;6135423;23;20196;-77
2022/07/26 01:02:47;;;;;;;12.07;2.80;;;18.20;99.90;;;;;;6135823;23;20346;-76
2022/07/26 01:05:13;;;;;;;9.43;2.60;;;18.20;99.90;;;;;;6136201;23;20048;-77
2022/07/26 01:07:39;;;;;;;10.48;2.63;;;18.20;99.90;;;;;;6112778;23;20048;-76
2022/07/26 01:10:10;;;;;;;9.25;2.88;;;18.20;99.90;;;;;;6111557;23;20052;-77
2022/07/26 01:12:40;;;;;;;11.80;2.72;;;18.20;99.90;;;;;;6136371;23;20199;-76
2022/07/26 01:15:06;;;;;;;10.10;2.60;;;18.20;99.90;;;;;;6136760;23;20210;-77
2022/07/26 01:17:32;;;;;;;10.35;2.70;;;18.20;99.90;;;;;;6159379;23;20022;-75
2022/07/26 01:19:57;;;;;;;8.00;3.13;;;18.20;99.90;;;;;;6135369;23;20172;-75
2022/07/26 01:22:30;;;;;;;10.30;3.35;;;18.20;99.90;;;;;;6134838;23;20244;-76
2022/07/26 01:25:02;;;;;;;8.55;2.75;;;18.10;99.90;;;;;;6136772;23;20010;-77
2022/07/26 01:27:28;;;;;;;8.25;2.70;;;18.30;99.90;;;;;;6135297;23;20247;-76
2022/07/26 01:29:53;;;;;;;8.43;3.38;;;18.20;99.90;;;;;;6111990;23;20010;-78
2022/07/26 01:32:19;;;;;;;11.90;3.15;;;18.20;99.90;;;;;;6134949;23;20072;-77
2022/07/26 01:34:45;;;;;;;9.55;3.17;;;18.20;99.90;;;;;;6111936;23;20018;-76
2022/07/26 01:37:11;;;;;;;10.65;3.35;;;18.20;99.90;;;;;;6135809;23;20013;-75
2022/07/26 01:39:37;;;;;;;11.48;3.05;;;18.20;99.90;;;;;;6161841;23;20010;-75
2022/07/26 01:42:02;;;;;;;7.00;2.67;;;18.30;99.90;;;;;;6112092;23;20064;-75
2022/07/26 01:44:28;;;;;;;9.18;2.90;;;18.20;99.90;;;;;;6111544;23;20017;-75
2022/07/26 01:46:54;;;;;;;13.05;3.35;;;18.30;99.90;;;;;;6135019;23;20359;-76
2022/07/26 01:49:19;;;;;;;7.15;2.67;;;18.30;99.90;;;;;;6160505;23;20037;-76
2022/07/26 01:51:45;;;;;;;8.65;2.75;;;18.20;99.90;;;;;;6111422;23;20307;-75
2022/07/26 01:54:12;;;;;;;4.88;2.58;;;18.30;99.90;;;;;;6135329;23;20033;-75
2022/07/26 01:56:38;;;;;;;9.48;2.50;;;18.20;99.90;;;;;;6160178;23;20028;-75
2022/07/26 01:59:04;;;;;;;7.93;2.63;;;18.30;99.90;;;;;;6160709;23;20056;-76
2022/07/26 02:01:29;;;;;;;6.50;2.53;;;18.20;99.90;;;;;;6134997;23;20059;-75
2022/07/26 02:03:55;;;;;;;9.23;2.80;;;18.20;99.90;;;;;;6112128;23;20370;-75
2022/07/26 02:06:21;;;;;;;4.97;2.35;;;18.20;99.90;;;;;;6160132;23;20052;-75
2022/07/26 02:08:50;;;;;;;7.90;2.53;;;18.20;99.90;;;;;;6160018;23;20025;-75
2022/07/26 02:11:15;;;;;;;7.13;2.53;;;18.10;99.90;;;;;;6111842;23;20041;-75
2022/07/26 02:13:41;;;;;;;6.78;2.70;;;18.10;99.90;;;;;;6160243;23;20072;-75
2022/07/26 02:16:09;;;;;;;7.32;2.70;;;18.20;99.90;;;;;;6134575;23;20013;-74
2022/07/26 02:18:41;;;;;;;7.32;2.50;;;18.10;99.90;;;;;;6160883;23;20010;-75
2022/07/26 02:21:10;;;;;;;4.95;2.40;;;18.10;99.90;;;;;;6161209;23;20052;-77
2022/07/26 02:23:36;;;;;;;7.18;2.25;;;18.10;99.90;;;;;;6133489;23;20318;-77
2022/07/26 02:26:02;;;;;;;8.18;3.38;;;18.10;99.90;;;;;;6135839;23;20186;-77
2022/07/26 02:28:30;;;;;;;5.38;2.13;;;18.20;99.90;;;;;;6111387;23;20013;-76
2022/07/26 02:30:56;;;;;;;9.35;2.60;;;18.20;99.90;;;;;;6112070;23;20041;-76
2022/07/26 02:33:22;;;;;;;9.93;2.95;;;18.20;99.90;;;;;;6113116;23;20251;-79
2022/07/26 02:35:48;;;;;;;6.55;2.92;;;18.10;99.90;;;;;;6139447;23;20013;-81
2022/07/26 02:38:15;;;;;;;8.05;3.05;;;17.80;99.90;;;;;;6139782;23;20017;-83
2022/07/26 02:40:42;;;;;;;12.13;3.10;;;17.80;99.90;;;;;;6139134;23;20017;-79
2022/07/26 02:43:09;;;;;;;6.35;2.97;;;17.40;99.90;;;;;;6163909;23;20009;-82
2022/07/26 02:45:38;;;;;;;3.55;1.80;;;18.10;99.90;;;;;;6163929;23;20023;-87
2022/07/26 02:48:05;;;;;;;5.15;2.13;;;18.30;99.90;;;;;;6140012;23;20295;-86
2022/07/26 02:50:38;;;;;;;5.47;2.35;;;17.10;99.90;;;;;;6139728;23;20014;-86
2022/07/26 02:53:07;;;;;;;5.75;2.42;;;17.60;99.90;;;;;;6139757;23;20013;-90
2022/07/26 02:55:33;;;;;;;6.55;2.67;;;17.10;99.90;;;;;;6138968;23;20019;-85
2022/07/26 02:58:02;;;;;;;7.60;2.60;;;17.70;99.90;;;;;;6139517;23;20299;-88
2022/07/26 03:00:27;;;;;;;9.55;3.00;;;17.20;99.90;;;;;;6138907;23;20325;-85
2022/07/26 03:02:53;;;;;;;10.38;2.72;;;17.10;99.90;;;;;;6139329;23;20009;-88
2022/07/26 03:05:20;;;;;;;8.20;3.40;;;18.10;99.90;;;;;;6114353;23;20025;-88
2022/07/26 03:07:46;;;;;;;6.82;2.70;;;17.40;99.90;;;;;;6140184;23;20021;-85
2022/07/26 03:10:12;;;;;;;12.07;3.10;;;17.10;99.90;;;;;;6139512;23;20111;-89
2022/07/26 03:12:38;;;;;;;8.27;2.42;;;17.40;99.90;;;;;;6139795;23;20265;-91
2022/07/26 03:15:05;;;;;;;10.07;2.30;;;17.70;99.90;;;;;;6139412;23;20060;-86
2022/07/26 03:17:34;;;;;;;8.25;2.40;;;18.00;99.90;;;;;;6139563;23;20383;-86
2022/07/26 03:20:01;;;;;;;6.50;2.42;;;17.90;99.90;;;;;;6138003;23;20017;-85
2022/07/26 03:22:30;;;;;;;7.88;2.28;;;17.90;99.90;;;;;;6114422;23;20189;-88
2022/07/26 03:25:16;;;;;;;6.35;2.15;;;16.90;99.90;;;;;;6139075;23;20092;-86
2022/07/26 03:28:46;;;;;;;;;;;;;;;;;;;;;
2022/07/26 03:31:31;;;;;;;6.13;2.10;;;16.30;99.90;;;;;;6164333;23;20012;-87
2022/07/26 03:34:05;;;;;;;8.63;2.13;;;16.90;99.90;;;;;;6138114;23;20229;-88
2022/07/26 03:36:34;;;;;;;9.40;2.00;;;18.00;99.90;;;;;;6138008;23;20196;-86
2022/07/26 03:39:02;;;;;;;7.22;1.92;;;18.00;99.90;;;;;;6090391;23;20017;-87
2022/07/26 03:41:30;;;;;;;3.97;1.50;;;17.70;99.90;;;;;;6138418;23;20037;-86
2022/07/26 03:43:59;;;;;;;5.68;1.50;;;16.80;99.90;;;;;;6163393;23;20037;-86
2022/07/26 03:46:30;;;;;;;5.60;1.73;;;17.80;99.90;;;;;;6138923;23;20033;-87
2022/07/26 03:48:56;;;;;;;8.32;1.50;;;17.00;99.90;;;;;;6138662;23;20013;-89
2022/07/26 03:51:22;;;;;;;4.78;1.30;;;17.20;99.90;;;;;;6137388;23;20021;-87
2022/07/26 03:53:51;;;;;;;6.57;1.30;;;17.70;99.90;;;;;;6136403;23;20013;-85
2022/07/26 04:00:26;;;;;;;7.10;2.20;;;16.90;99.90;;;;;;6095734;23;20022;-89
2022/07/26 04:02:52;;;;;;;4.68;1.20;;;16.90;99.90;;;;;;6108136;23;20282;-89
2022/07/26 04:05:17;;;;;;;3.45;1.20;;;16.70;99.90;;;;;;6136242;23;20068;-86
2022/07/26 04:07:44;;;;;;;5.25;1.30;;;16.60;99.90;;;;;;6136707;23;20072;-82
2022/07/26 04:10:14;;;;;;;7.50;1.58;;;17.60;99.90;;;;;;6134673;23;20021;-87
2022/07/26 04:12:43;;;;;;;3.78;1.02;;;17.90;99.90;;;;;;6137358;23;20027;-85
2022/07/26 04:15:12;;;;;;;4.38;1.08;;;17.10;99.90;;;;;;6110548;23;20024;-87
2022/07/26 04:17:43;;;;;;;4.10;1.00;;;16.70;99.90;;;;;;6134342;23;20017;-87
2022/07/26 04:20:11;;;;;;;3.92;1.13;;;17.00;99.90;;;;;;6110631;23;20017;-86
2022/07/26 04:22:51;;;;;;;3.97;1.60;;;17.50;99.90;;;;;;6136482;23;20025;-86
2022/07/26 04:25:20;;;;;;;8.05;1.38;;;16.60;99.90;;;;;;6135360;23;20045;-85
2022/07/26 04:27:46;;;;;;;5.97;1.10;;;16.70;99.90;;;;;;6137443;23;20291;-85
2022/07/26 04:30:20;;;;;;;6.00;1.35;;;16.50;99.90;;;;;;6111291;23;20280;-86
2022/07/26 04:33:51;;;;;;;4.07;1.00;;;16.80;99.90;;;;;;6139306;23;20024;-87
2022/07/26 04:36:28;;;;;;;7.28;1.20;;;16.90;99.90;;;;;;6159639;23;20367;-87
2022/07/26 04:41:42;;;;;;;7.82;1.30;;;16.80;99.90;;;;;;6162811;23;20235;-87
2022/07/26 04:44:17;;;;;;;3.25;1.10;;;16.80;99.90;;;;;;6137585;23;20018;-86
2022/07/26 04:55:09;;;;;;;3.03;0.90;;;17.10;99.90;;;;;;5960557;24;20039;-88
2022/07/26 05:19:53;;;;;;;4.10;0.80;;;16.50;99.90;;;;;;5659628;22;15587331;-85
2022/07/26 05:22:19;;;;;;;4.03;1.00;;;16.90;99.90;;;;;;6165349;22;20011;-86
2022/07/26 05:24:45;;;;;;;4.10;1.63;;;16.90;99.90;;;;;;6240604;22;20220;-85
2022/07/26 05:27:11;;;;;;;2.75;1.13;;;16.80;99.90;;;;;;6192357;22;20016;-86
2022/07/26 05:29:39;;;;;;;4.75;0.90;;;17.00;99.90;;;;;;6267752;22;20011;-83
2022/07/26 05:32:05;;;;;;;8.07;0.98;;;17.00;99.90;;;;;;6219929;22;20008;-85
2022/07/26 05:34:34;;;;;;;3.00;1.23;;;16.60;99.90;;;;;;6222246;22;20021;-86
2022/07/26 05:41:30;;;;;;;2.08;1.02;;;16.60;99.90;;;;;;6242403;22;20011;-85
2022/07/26 05:48:11;;;;;;;5.20;0.90;;;16.30;99.90;;;;;;6020324;23;20037;-87
2022/07/26 05:55:27;;;;;;;3.65;0.98;;;16.40;99.90;;;;;;5944211;24;20049;-86
2022/07/26 06:10:47;;;;;;;6.53;1.23;;;16.90;99.90;;;;;;5859378;24;20068;-87
2022/07/26 06:13:25;;;;;;;3.70;1.20;;;16.80;99.90;;;;;;5882640;24;20018;-82
2022/07/26 06:16:50;;;;;;;3.20;0.93;;;16.40;99.90;;;;;;5938235;24;20099;-87
2022/07/26 06:19:16;;;;;;;5.63;1.20;;;16.50;99.90;;;;;;5934235;24;20335;-66
2022/07/26 06:23:04;;;;;;;;;;;;;;;;;;;;;
2022/07/26 06:28:57;;;;;;;6.38;1.60;;;16.60;99.90;;;;;;6133336;23;20020;-87
2022/07/26 06:31:29;;;;;;;3.85;0.90;;;16.80;99.90;;;;;;6141780;23;20020;-85
2022/07/26 06:33:55;;;;;;;5.90;0.90;;;16.70;99.90;;;;;;6141941;23;20080;-86
2022/07/26 06:36:21;;;;;;;3.00;0.90;;;17.10;99.90;;;;;;6167368;23;20016;-85
2022/07/26 06:38:47;;;;;;;4.00;1.00;;;16.90;99.90;;;;;;6142007;23;20021;-83
2022/07/26 06:41:13;;;;;;;3.38;0.90;;;16.80;99.90;;;;;;6219431;22;20011;-83
2022/07/26 06:43:39;;;;;;;7.18;1.00;;;16.90;99.90;;;;;;6233409;22;20019;-89
2022/07/26 06:46:08;;;;;;;4.35;1.30;;;16.70;99.90;;;;;;6183460;22;20011;-85
2022/07/26 06:48:34;;;;;;;5.13;1.20;;;16.70;99.90;;;;;;6182158;22;20016;-86
2022/07/26 06:51:00;;;;;;;7.72;1.30;;;17.20;99.90;;;;;;6232844;22;20011;-88
2022/07/26 06:53:26;;;;;;;8.75;1.73;;;17.00;99.90;;;;;;6209395;22;20022;-87
2022/07/26 06:55:51;;;;;;;5.50;0.90;;;16.90;99.90;;;;;;6234115;22;20271;-86
2022/07/26 06:58:17;;;;;;;5.32;1.40;;;17.10;99.90;;;;;;6233957;22;20422;-85
2022/07/26 07:00:43;;;;;;;5.90;1.20;;;16.90;99.90;;;;;;6231338;22;20046;-85
2022/07/26 07:03:09;;;;;;;4.47;0.90;;;17.00;99.90;;;;;;6207620;22;20358;-84
2022/07/26 07:05:37;;;;;;;2.85;0.93;;;16.90;99.90;;;;;;6232116;22;20019;-85
2022/07/26 07:08:08;;;;;;;5.70;1.00;;;17.10;99.90;;;;;;6207044;22;20027;-85
2022/07/26 07:10:37;;;;;;;2.80;0.90;;;16.80;99.90;;;;;;6231881;22;20039;-83
2022/07/26 07:13:03;;;;;;;4.35;1.08;;;16.80;99.90;;;;;;6206698;22;20353;-84
2022/07/26 07:15:35;;;;;;;6.30;1.10;;;17.00;99.90;;;;;;6230096;22;20023;-83
2022/07/26 07:18:00;;;;;;;2.72;0.85;;;16.90;99.90;;;;;;6231896;22;20018;-83
2022/07/26 07:20:33;;;;;;;5.60;0.98;;;17.00;99.90;;;;;;6206587;22;20004;-84
2022/07/26 07:22:58;;;;;;;2.50;0.80;;;17.00;99.90;;;;;;6231306;22;20019;-84
2022/07/26 07:25:27;;;;;;;5.53;1.33;;;17.00;99.90;;;;;;6231846;22;20194;-83
2022/07/26 07:27:53;;;;;;;5.03;1.15;;;16.80;99.90;;;;;;6206120;22;20015;-82
2022/07/26 07:30:22;;;;;;;6.93;1.10;;;16.90;99.90;;;;;;6232101;22;20019;-82
2022/07/26 07:37:07;;;;;;;2.25;0.90;;;16.60;99.90;;;;;;6190098;23;20234;-83
2022/07/26 07:39:48;;;;;;;3.58;1.27;;;17.30;99.90;;;;;;6140942;23;20032;-83
2022/07/26 07:42:17;;;;;;;4.35;1.00;;;16.70;99.90;;;;;;6141347;23;20005;-83
2022/07/26 07:45:03;;;;;;;4.60;1.00;;;17.30;99.90;;;;;;6182239;22;20214;-84
2022/07/26 07:47:43;;;;;;;7.63;1.23;;;17.00;99.90;;;;;;6257224;22;20015;-85
2022/07/26 07:50:16;;;;;;;4.15;1.10;;;16.80;99.90;;;;;;6207275;22;20232;-83
2022/07/26 07:52:47;;;;;;;7.22;1.40;;;17.00;99.90;;;;;;6231555;22;20324;-84
2022/07/26 07:55:20;;;;;;;5.13;1.17;;;16.80;99.90;;;;;;6207521;22;20062;-84
2022/07/26 07:57:46;;;;;;;7.50;1.10;;;16.90;99.90;;;;;;6233054;22;20968;-79
2022/07/26 08:00:14;;;;;;;3.83;1.10;;;17.00;99.90;;;;;;6207456;22;20019;-83
2022/07/26 08:02:49;;;;;;;5.18;1.15;;;16.80;99.90;;;;;;6232630;22;20298;-82
2022/07/26 08:05:15;;;;;;;3.47;1.08;;;16.70;99.90;;;;;;6208071;22;20091;-83
2022/07/26 08:07:41;;;;;;;4.03;0.90;;;16.80;99.90;;;;;;6205640;22;20306;-84
2022/07/26 08:10:07;;;;;;;9.35;1.60;;;16.80;99.90;;;;;;6233243;22;20018;-85
2022/07/26 08:12:33;;;;;;;5.53;0.90;;;16.90;99.90;;;;;;6206995;22;20007;-85
2022/07/26 08:15:00;;;;;;;6.50;0.98;;;17.00;99.90;;;;;;6232831;22;20133;-82
2022/07/26 08:17:49;;;;;;;4.60;0.88;;;17.00;99.90;;;;;;6232278;22;20043;-86
2022/07/26 08:20:17;;;;;;;5.20;1.45;;;17.00;99.90;;;;;;6229906;22;20012;-85
2022/07/26 08:22:43;;;;;;;3.45;1.10;;;17.20;99.90;;;;;;6233565;22;20031;-84
2022/07/26 08:25:14;;;;;;;4.80;0.95;;;17.30;99.90;;;;;;6233268;22;20020;-85
2022/07/26 08:27:40;;;;;;;3.33;0.98;;;17.50;99.90;;;;;;6257871;22;20114;-83
2022/07/26 08:30:06;;;;;;;1.88;1.00;;;17.70;99.90;;;;;;6208408;22;20011;-83
2022/07/26 08:32:35;;;;;;;2.65;1.00;;;18.00;99.90;;;;;;6258611;22;20034;-82
2022/07/26 08:35:01;;;;;;;3.22;0.98;;;17.90;99.90;;;;;;6257803;22;20299;-83
2022/07/26 08:37:30;;;;;;;6.15;1.30;;;17.90;99.90;;;;;;6232402;22;20012;-83
2022/07/26 08:39:57;;;;;;;5.75;1.70;;;18.10;99.90;;;;;;6232349;22;20020;-82
2022/07/26 08:42:28;;;;;;;5.70;1.10;;;18.20;99.90;;;;;;6207704;22;20007;-82
2022/07/26 08:45:03;;;;;;;3.88;1.20;;;18.30;99.90;;;;;;6180225;22;20096;-84
2022/07/26 08:48:09;;;;;;;4.22;1.17;;;18.30;99.90;;;;;;6232107;22;20007;-82
2022/07/26 08:50:51;;;;;;;5.32;1.20;;;18.40;99.90;;;;;;6254978;22;20011;-83
2022/07/26 08:53:19;;;;;;;4.47;1.35;;;18.10;99.90;;;;;;6257783;22;20071;-84
2022/07/26 08:55:45;;;;;;;6.55;1.73;;;17.40;99.90;;;;;;6231998;22;20041;-85
2022/07/26 08:58:11;;;;;;;4.60;1.10;;;17.30;99.90;;;;;;6207670;22;20075;-82
2022/07/26 09:00:37;;;;;;;4.75;1.30;;;17.30;99.90;;;;;;6207586;22;20206;-81
2022/07/26 09:03:03;;;;;;;4.07;1.17;;;17.40;99.90;;;;;;6233367;22;20320;-82
2022/07/26 09:05:36;;;;;;;4.90;1.40;;;17.60;99.90;;;;;;6233412;22;20019;-83
2022/07/26 09:08:25;;;;;;;8.27;2.15;;;17.70;99.90;;;;;;6233262;22;20014;-79
2022/07/26 09:10:54;;;;;;;8.75;2.30;;;17.80;99.90;;;;;;6232707;22;20097;-84
2022/07/26 09:13:22;;;;;;;5.38;1.48;;;17.80;99.90;;;;;;6208245;22;20233;-81
2022/07/26 09:16:11;;;;;;;8.98;1.83;;;17.30;99.90;;;;;;6206853;22;20043;-80
2022/07/26 09:18:37;;;;;;;4.85;1.13;;;17.30;99.90;;;;;;6231732;22;20051;-80
2022/07/26 09:21:03;;;;;;;6.70;1.60;;;17.30;99.90;;;;;;6207104;22;20019;-82
2022/07/26 09:23:38;;;;;;;8.30;1.83;;;17.40;99.90;;;;;;6207337;22;20282;-80
2022/07/26 09:26:04;;;;;;;6.45;2.08;;;17.40;99.90;;;;;;6232216;22;20042;-80
2022/07/26 09:28:30;;;;;;;5.60;1.50;;;17.30;99.90;;;;;;6232598;22;20008;-82
2022/07/26 09:30:59;;;;;;;5.57;1.25;;;17.40;99.90;;;;;;6231864;22;20016;-82
2022/07/26 09:33:25;;;;;;;7.32;1.70;;;17.50;99.90;;;;;;6232632;22;20052;-81
2022/07/26 09:36:05;;;;;;;5.75;1.50;;;17.60;99.90;;;;;;6231855;22;20035;-80
2022/07/26 09:38:42;;;;;;;5.20;1.55;;;17.70;99.90;;;;;;6232499;22;20016;-78
2022/07/26 09:41:23;;;;;;;5.53;1.48;;;17.80;99.90;;;;;;6208158;22;20043;-80
2022/07/26 09:43:50;;;;;;;4.15;1.23;;;17.80;99.90;;;;;;6256883;22;20240;-80
2022/07/26 09:46:34;;;;;;;7.50;1.60;;;17.70;99.90;;;;;;6231585;22;20016;-76
2022/07/26 09:53:52;;;;;;;4.35;1.50;;;17.30;99.90;;;;;;6071414;23;20019;-77
2022/07/26 09:56:24;;;;;;;7.32;2.17;;;17.00;99.90;;;;;;6046326;23;20007;-80
2022/07/26 09:58:51;;;;;;;8.52;2.42;;;17.10;99.90;;;;;;6068891;23;20195;-78
2022/07/26 10:01:17;;;;;;;8.52;1.92;;;17.20;99.90;;;;;;6170705;22;20217;-78
2022/07/26 10:03:44;;;;;;;7.10;1.65;;;17.20;99.90;;;;;;6258834;22;20022;-78
2022/07/26 10:15:36;;;;;;;7.88;1.75;;;18.00;99.90;;;;;;6043811;23;20208;-78
2022/07/26 10:29:16;;;;;;;7.03;1.42;;;17.90;99.90;;;;;;5994078;23;20043;-79
2022/07/26 10:32:39;;;;;;;;;;;;;;;;;;;;;
2022/07/26 10:36:00;;;;;;;5.53;1.70;;;18.50;99.90;;;;;;5993307;23;20242;-79
2022/07/26 10:38:57;;;;;;;6.10;1.35;;;18.50;99.90;;;;;;6023490;23;20034;-78
2022/07/26 10:42:05;;;;;;;5.80;1.40;;;18.90;99.90;;;;;;6147180;23;20067;-77
2022/07/26 10:44:40;;;;;;;4.78;1.42;;;18.90;99.90;;;;;;6221473;22;20011;-78
2022/07/26 10:47:06;;;;;;;5.55;1.33;;;19.30;99.90;;;;;;6258298;22;20019;-79
2022/07/26 10:49:55;;;;;;;4.80;1.55;;;19.40;99.90;;;;;;6258277;22;20175;-80
2022/07/26 10:52:26;;;;;;;9.02;1.55;;;19.20;99.90;;;;;;6232738;22;20015;-77
2022/07/26 10:54:58;;;;;;;5.93;1.38;;;19.50;99.90;;;;;;6232887;22;20054;-77
2022/07/26 10:57:25;;;;;;;6.65;1.25;;;19.40;99.90;;;;;;6258423;22;20313;-80
2022/07/26 10:59:51;;;;;;;7.30;1.75;;;19.10;99.90;;;;;;6232981;22;20216;-80
2022/07/26 11:02:22;;;;;;;5.68;1.40;;;19.10;99.90;;;;;;6233245;22;20022;-79
2022/07/26 11:05:12;;;;;;;4.65;1.58;;;19.30;99.90;;;;;;6233348;22;20011;-80
2022/07/26 11:08:09;;;;;;;6.30;1.45;;;19.70;99.90;;;;;;6257985;22;20133;-78
2022/07/26 11:10:41;;;;;;;3.95;1.73;;;19.80;99.90;;;;;;6233125;22;20019;-76
2022/07/26 11:13:13;;;;;;;4.63;1.10;;;20.30;99.90;;;;;;6257768;22;20043;-79
2022/07/26 11:15:48;;;;;;;3.63;1.30;;;20.30;99.90;;;;;;6233076;22;20190;-77
2022/07/26 11:18:26;;;;;;;4.78;1.40;;;19.70;99.90;;;;;;6258170;22;20070;-78
2022/07/26 11:20:54;;;;;;;3.95;1.35;;;19.70;99.90;;;;;;6231882;22;20175;-77
2022/07/26 11:23:28;;;;;;;4.18;1.75;;;19.50;99.90;;;;;;6232770;22;20062;-79
2022/07/26 11:26:03;;;;;;;;;;;19.70;99.90;;;;;;6233771;22;20018;-80
2022/07/26 11:28:29;;;;;;;5.32;1.40;;;19.60;99.90;;;;;;6232763;22;19914;-80
2022/07/26 11:31:24;;;;;;;3.65;1.10;;;19.70;99.90;;;;;;6258058;22;20007;-77
2022/07/26 11:34:20;;;;;;;3.28;1.02;;;20.20;99.90;;;;;;6249629;22;20007;-77
2022/07/26 11:36:48;;;;;;;4.10;1.00;;;20.90;99.90;;;;;;6228661;22;20015;-80
2022/07/26 11:39:29;;;;;;;5.75;1.08;;;21.50;99.90;;;;;;6232899;22;20244;-77
2022/07/26 11:42:13;;;;;;;5.68;1.08;;;20.80;99.90;;;;;;6257628;22;20038;-77
2022/07/26 11:44:47;;;;;;;5.13;1.05;;;20.30;99.90;;;;;;6232708;22;20019;-80
2022/07/26 11:47:23;;;;;;;2.90;0.90;;;19.90;99.90;;;;;;6208055;22;20320;-77
2022/07/26 11:49:49;;;;;;;4.03;1.05;;;19.80;99.90;;;;;;6233367;22;20012;-80
2022/07/26 11:52:16;;;;;;;3.90;1.27;;;19.60;99.90;;;;;;6258119;22;20035;-80
2022/07/26 11:54:50;;;;;;;2.97;1.10;;;19.90;99.90;;;;;;6183683;22;20058;-78
2022/07/26 11:57:17;;;;;;;4.38;1.10;;;20.40;99.90;;;;;;6207311;22;20042;-76
2022/07/26 11:59:45;;;;;;;6.50;1.10;;;20.30;99.90;;;;;;6257883;22;20325;-76
2022/07/26 12:02:14;;;;;;;2.72;0.93;;;20.20;99.90;;;;;;6233176;22;20016;-78
2022/07/26 12:04:43;;;;;;;4.35;1.17;;;20.40;99.90;;;;;;6258720;22;20014;-80
2022/07/26 12:07:09;;;;;;;3.33;0.93;;;20.30;99.90;;;;;;6232806;22;20035;-80
2022/07/26 12:09:39;;;;;;;5.22;1.27;;;20.20;99.90;;;;;;6232361;22;20046;-80
2022/07/26 12:12:18;;;;;;;1.92;1.00;;;20.00;99.90;;;;;;6231683;22;20023;-80
2022/07/26 12:14:55;;;;;;;2.55;0.73;;;20.60;99.90;;;;;;6232361;22;20022;-79
2022/07/26 12:17:20;;;;;;;2.78;1.02;;;20.50;99.90;;;;;;6232043;22;20008;-79
2022/07/26 12:19:46;;;;;;;2.58;0.90;;;20.00;99.90;;;;;;6257277;22;20015;-79
2022/07/26 12:22:22;;;;;;;5.47;1.27;;;20.50;99.90;;;;;;6181980;22;20019;-79
2022/07/26 12:24:51;;;;;;;4.47;1.27;;;20.60;99.90;;;;;;6232021;22;20023;-77
2022/07/26 12:27:24;;;;;;;3.85;0.95;;;20.20;99.90;;;;;;6231760;22;20081;-78
2022/07/26 12:29:53;;;;;;;6.10;1.13;;;20.00;99.90;;;;;;6257497;22;20011;-79
2022/07/26 12:32:22;;;;;;;3.58;1.10;;;19.50;99.90;;;;;;6257072;22;20016;-78
2022/07/26 12:34:59;;;;;;;4.32;1.27;;;19.30;99.90;;;;;;6257587;22;20007;-76
2022/07/26 12:37:25;;;;;;;;;;;19.30;99.90;;;;;;6233510;22;20095;-79
2022/07/26 12:40:27;;;;;;;7.80;1.15;;;19.60;99.90;;;;;;6232918;22;20037;-81
2022/07/26 12:42:58;;;;;;;5.72;1.20;;;19.70;99.90;;;;;;6237877;22;20019;-76
2022/07/26 12:45:29;;;;;;;6.97;1.27;;;19.70;99.90;;;;;;6232004;22;20012;-80
2022/07/26 12:47:57;;;;;;;4.25;1.10;;;19.60;99.90;;;;;;6257219;22;20008;-79
2022/07/26 12:50:25;;;;;;;7.20;1.65;;;19.70;99.90;;;;;;6182584;22;20011;-80
2022/07/26 12:52:53;;;;;;;2.70;1.40;;;19.60;99.90;;;;;;6232256;22;20007;-80
2022/07/26 12:55:22;;;;;;;3.95;1.27;;;19.50;99.90;;;;;;6208398;22;20087;-78
2022/07/26 12:57:50;;;;;;;6.40;1.25;;;19.20;99.90;;;;;;6232274;22;20494;-80
2022/07/26 13:00:19;;;;;;;4.32;1.33;;;19.10;99.90;;;;;;6231458;22;20039;-77
2022/07/26 13:02:56;;;;;;;5.10;1.20;;;19.20;99.90;;;;;;6207450;22;20015;-80
2022/07/26 13:05:22;;;;;;;3.28;1.10;;;19.20;99.90;;;;;;6209422;22;20012;-75
2022/07/26 13:07:50;;;;;;;3.58;1.00;;;19.10;99.90;;;;;;6256890;22;20015;-79
2022/07/26 13:10:16;;;;;;;5.90;1.33;;;19.20;99.90;;;;;;6231459;22;20046;-80
2022/07/26 13:12:42;;;;;;;5.47;1.42;;;19.30;99.90;;;;;;6232419;22;20290;-77
2022/07/26 13:15:08;;;;;;;6.32;1.30;;;19.20;99.90;;;;;;6232053;22;20007;-79
2022/07/26 13:17:34;;;;;;;5.25;1.33;;;19.30;99.90;;;;;;6206795;22;20062;-76
2022/07/26 13:20:18;;;;;;;7.97;1.67;;;19.60;99.90;;;;;;6231499;22;20012;-80
2022/07/26 13:23:11;;;;;;;4.40;1.27;;;19.70;99.90;;;;;;6209740;22;20031;-76
2022/07/26 13:39:50;;;;;;;5.45;1.30;;;20.40;99.90;;;;;;6079592;23;20043;-79
2022/07/26 13:42:43;;;;;;;;;;;;;;;;;;;;;
2022/07/26 13:45:12;;;;;;;5.40;1.30;;;19.80;99.90;;;;;;6242527;22;20241;-78
2022/07/26 13:47:38;;;;;;;3.28;1.00;;;19.20;99.90;;;;;;6237401;22;20016;-75
2022/07/26 13:50:05;;;;;;;3.65;1.35;;;19.10;99.90;;;;;;6263506;22;20012;-79
2022/07/26 13:52:30;;;;;;;2.80;1.00;;;19.00;99.90;;;;;;6211316;22;20003;-76
2022/07/26 13:54:56;;;;;;;4.45;1.50;;;19.10;99.90;;;;;;6208478;22;20008;-81
2022/07/26 13:57:22;;;;;;;3.45;1.50;;;19.70;99.90;;;;;;6233750;22;20007;-81
2022/07/26 14:00:14;;;;;;;3.25;0.98;;;19.90;99.90;;;;;;6209046;22;20007;-79
2022/07/26 14:02:42;;;;;;;3.72;1.05;;;19.80;99.90;;;;;;6228800;22;20015;-80
2022/07/26 14:05:11;;;;;;;4.65;1.40;;;19.60;99.90;;;;;;6233785;22;20321;-75
2022/07/26 14:07:37;;;;;;;6.32;1.17;;;19.40;99.90;;;;;;6234197;22;20007;-75
2022/07/26 14:10:03;;;;;;;3.47;1.02;;;19.40;99.90;;;;;;6233619;22;20012;-77
2022/07/26 14:12:29;;;;;;;4.13;1.20;;;19.50;99.90;;;;;;6233623;22;20063;-80
2022/07/26 14:14:55;;;;;;;4.85;1.00;;;19.50;99.90;;;;;;6205782;22;20229;-77
2022/07/26 14:17:20;;;;;;;3.75;1.08;;;19.60;99.90;;;;;;6181642;22;20016;-79
2022/07/26 14:19:46;;;;;;;4.25;1.00;;;20.50;99.90;;;;;;6232706;22;20035;-78
2022/07/26 14:22:14;;;;;;;2.72;1.08;;;20.90;99.90;;;;;;6207349;22;20317;-80
2022/07/26 14:24:39;;;;;;;5.82;1.30;;;20.90;99.90;;;;;;6232968;22;20024;-80
2022/07/26 14:27:22;;;;;;;4.03;1.23;;;20.40;99.90;;;;;;6208075;22;20054;-78
2022/07/26 14:29:48;;;;;;;8.75;1.38;;;19.90;99.90;;;;;;6233343;22;20012;-81
2022/07/26 14:32:15;;;;;;;3.42;1.00;;;19.70;99.90;;;;;;6258013;22;20052;-77
2022/07/26 14:34:41;;;;;;;4.50;1.10;;;19.50;99.90;;;;;;6232394;22;20198;-76
2022/07/26 14:37:06;;;;;;;5.20;1.00;;;19.30;99.90;;;;;;6232559;22;20198;-76
2022/07/26 14:39:36;;;;;;;2.33;1.17;;;19.60;99.90;;;;;;6232967;22;20026;-79
2022/07/26 14:42:02;;;;;;;6.07;1.10;;;19.60;99.90;;;;;;6231980;22;20322;-79
2022/07/26 14:44:28;;;;;;;5.47;0.98;;;19.70;99.90;;;;;;6207479;22;20422;-75
2022/07/26 14:46:54;;;;;;;2.75;1.00;;;20.10;99.90;;;;;;6207485;22;20222;-77
2022/07/26 14:49:19;;;;;;;2.25;1.00;;;20.20;99.90;;;;;;6257217;22;20299;-78
2022/07/26 14:51:45;;;;;;;2.10;0.75;;;20.10;99.90;;;;;;6182539;22;20011;-72
2022/07/26 14:54:15;;;;;;;2.85;0.73;;;19.50;99.90;;;;;;6231246;22;20363;-79
2022/07/26 14:56:41;;;;;;;3.58;1.10;;;19.40;99.90;;;;;;6232303;22;20007;-75
2022/07/26 14:59:06;;;;;;;4.05;1.05;;;19.20;99.90;;;;;;6232117;22;20257;-74
2022/07/26 15:01:32;;;;;;;3.28;1.02;;;19.10;99.90;;;;;;6207610;22;20011;-75